sensor_id;sensor_type;location;lat;lon;timestamp;P1;durP1;ratioP1;P2;durP2;ratioP2
36257;SDS011;22294;52.044;4.582;2023-03-21T00:01:36;19.70;;;14.82;;
36257;SDS011;22294;52.044;4.582;2023-03-21T00:04:02;24.55;;;17.15;;
36257;SDS011;22294;52.044;4.582;2023-03-21T00:06:27;23.00;;;16.50;;
36257;SDS011;22294;52.044;4.582;2023-03-21T00:08:53;22.70;;;17.52;;
36257;SDS011;22294;52.044;4.582;2023-03-21T00:11:18;23.83;;;16.80;;
36257;SDS011;22294;52.044;4.582;2023-03-21T00:13:43;22.77;;;16.92;;
36257;SDS011;22294;52.044;4.582;2023-03-21T00:16:10;23.33;;;16.45;;
36257;SDS011;22294;52.044;4.582;2023-03-21T00:18:41;24.02;;;17.05;;
36257;SDS011;22294;52.044;4.582;2023-03-21T00:23:39;26.08;;;18.67;;
36257;SDS011;22294;52.044;4.582;2023-03-21T00:26:05;25.42;;;18.95;;
36257;SDS011;22294;52.044;4.582;2023-03-21T00:28:34;28.20;;;20.13;;
36257;SDS011;22294;52.044;4.582;2023-03-21T00:31:01;30.48;;;21.52;;
36257;SDS011;22294;52.044;4.582;2023-03-21T00:33:26;25.50;;;20.73;;
36257;SDS011;22294;52.044;4.582;2023-03-21T00:35:51;28.80;;;21.48;;
36257;SDS011;22294;52.044;4.582;2023-03-21T00:38:18;28.42;;;21.20;;
36257;SDS011;22294;52.044;4.582;2023-03-21T00:40:43;33.08;;;22.25;;
36257;SDS011;22294;52.044;4.582;2023-03-21T00:43:09;32.38;;;22.17;;
36257;SDS011;22294;52.044;4.582;2023-03-21T00:45:47;29.33;;;23.08;;
36257;SDS011;22294;52.044;4.582;2023-03-21T00:48:14;31.23;;;22.30;;
36257;SDS011;22294;52.044;4.582;2023-03-21T00:50:39;29.05;;;22.80;;
36257;SDS011;22294;52.044;4.582;2023-03-21T00:53:06;29.05;;;22.67;;
36257;SDS011;22294;52.044;4.582;2023-03-21T00:55:31;31.35;;;23.33;;
36257;SDS011;22294;52.044;4.582;2023-03-21T00:57:57;33.03;;;22.80;;
36257;SDS011;22294;52.044;4.582;2023-03-21T01:00:23;33.50;;;22.70;;
36257;SDS011;22294;52.044;4.582;2023-03-21T01:02:49;30.30;;;21.52;;
36257;SDS011;22294;52.044;4.582;2023-03-21T01:05:22;32.05;;;22.10;;
36257;SDS011;22294;52.044;4.582;2023-03-21T01:08:08;30.42;;;23.05;;
36257;SDS011;22294;52.044;4.582;2023-03-21T01:10:36;29.38;;;20.27;;
36257;SDS011;22294;52.044;4.582;2023-03-21T01:13:06;29.10;;;22.13;;
36257;SDS011;22294;52.044;4.582;2023-03-21T01:15:32;29.67;;;21.75;;
36257;SDS011;22294;52.044;4.582;2023-03-21T01:17:57;27.60;;;20.75;;
36257;SDS011;22294;52.044;4.582;2023-03-21T01:20:23;32.65;;;20.77;;
36257;SDS011;22294;52.044;4.582;2023-03-21T01:22:48;28.80;;;21.58;;
36257;SDS011;22294;52.044;4.582;2023-03-21T01:25:13;31.13;;;22.40;;
36257;SDS011;22294;52.044;4.582;2023-03-21T01:27:39;31.30;;;21.95;;
36257;SDS011;22294;52.044;4.582;2023-03-21T01:30:04;32.70;;;22.10;;
36257;SDS011;22294;52.044;4.582;2023-03-21T01:32:32;36.10;;;23.00;;
36257;SDS011;22294;52.044;4.582;2023-03-21T01:34:57;36.53;;;22.88;;
36257;SDS011;22294;52.044;4.582;2023-03-21T01:37:22;32.95;;;22.50;;
36257;SDS011;22294;52.044;4.582;2023-03-21T01:39:50;34.13;;;21.38;;
36257;SDS011;22294;52.044;4.582;2023-03-21T01:42:15;36.80;;;21.67;;
36257;SDS011;22294;52.044;4.582;2023-03-21T01:44:51;34.10;;;21.55;;
36257;SDS011;22294;52.044;4.582;2023-03-21T01:47:16;28.30;;;19.70;;
36257;SDS011;22294;52.044;4.582;2023-03-21T01:49:42;32.80;;;22.08;;
36257;SDS011;22294;52.044;4.582;2023-03-21T01:52:11;27.23;;;20.10;;
36257;SDS011;22294;52.044;4.582;2023-03-21T01:54:41;30.75;;;20.40;;
36257;SDS011;22294;52.044;4.582;2023-03-21T01:57:08;31.15;;;19.20;;
36257;SDS011;22294;52.044;4.582;2023-03-21T01:59:44;24.42;;;18.25;;
36257;SDS011;22294;52.044;4.582;2023-03-21T02:02:15;29.45;;;18.80;;
36257;SDS011;22294;52.044;4.582;2023-03-21T02:04:47;26.20;;;17.27;;
36257;SDS011;22294;52.044;4.582;2023-03-21T02:07:15;25.10;;;17.95;;
36257;SDS011;22294;52.044;4.582;2023-03-21T02:09:46;24.50;;;16.80;;
36257;SDS011;22294;52.044;4.582;2023-03-21T02:12:13;24.90;;;15.95;;
36257;SDS011;22294;52.044;4.582;2023-03-21T02:14:40;26.05;;;15.15;;
36257;SDS011;22294;52.044;4.582;2023-03-21T02:17:22;25.75;;;15.13;;
36257;SDS011;22294;52.044;4.582;2023-03-21T02:22:55;23.88;;;14.18;;
36257;SDS011;22294;52.044;4.582;2023-03-21T02:28:41;24.00;;;14.00;;
36257;SDS011;22294;52.044;4.582;2023-03-21T02:47:23;19.25;;;12.30;;
36257;SDS011;22294;52.044;4.582;2023-03-21T02:49:55;18.30;;;11.40;;
36257;SDS011;22294;52.044;4.582;2023-03-21T02:52:30;18.90;;;11.77;;
36257;SDS011;22294;52.044;4.582;2023-03-21T02:54:57;16.38;;;11.40;;
36257;SDS011;22294;52.044;4.582;2023-03-21T02:57:25;19.75;;;12.13;;
36257;SDS011;22294;52.044;4.582;2023-03-21T02:59:50;19.75;;;11.43;;
36257;SDS011;22294;52.044;4.582;2023-03-21T03:02:19;18.92;;;10.38;;
36257;SDS011;22294;52.044;4.582;2023-03-21T03:04:48;20.48;;;10.73;;
36257;SDS011;22294;52.044;4.582;2023-03-21T03:10:16;21.35;;;10.50;;
36257;SDS011;22294;52.044;4.582;2023-03-21T03:13:14;22.90;;;11.48;;
36257;SDS011;22294;52.044;4.582;2023-03-21T03:21:27;22.67;;;11.23;;
36257;SDS011;22294;52.044;4.582;2023-03-21T03:24:07;20.27;;;11.73;;
36257;SDS011;22294;52.044;4.582;2023-03-21T03:26:40;24.88;;;11.63;;
36257;SDS011;22294;52.044;4.582;2023-03-21T03:29:19;16.80;;;10.85;;
36257;SDS011;22294;52.044;4.582;2023-03-21T03:34:25;22.38;;;11.55;;
36257;SDS011;22294;52.044;4.582;2023-03-21T03:36:58;31.38;;;12.10;;
36257;SDS011;22294;52.044;4.582;2023-03-21T03:39:50;24.70;;;12.35;;
36257;SDS011;22294;52.044;4.582;2023-03-21T03:42:30;20.30;;;11.00;;
36257;SDS011;22294;52.044;4.582;2023-03-21T03:45:00;18.88;;;10.68;;
36257;SDS011;22294;52.044;4.582;2023-03-21T03:50:17;21.05;;;10.23;;
36257;SDS011;22294;52.044;4.582;2023-03-21T03:53:04;24.58;;;10.85;;
36257;SDS011;22294;52.044;4.582;2023-03-21T03:55:57;20.73;;;10.10;;
36257;SDS011;22294;52.044;4.582;2023-03-21T03:58:24;22.73;;;12.13;;
36257;SDS011;22294;52.044;4.582;2023-03-21T04:00:51;27.17;;;12.02;;
36257;SDS011;22294;52.044;4.582;2023-03-21T04:03:18;21.40;;;11.38;;
36257;SDS011;22294;52.044;4.582;2023-03-21T04:05:43;21.25;;;11.52;;
36257;SDS011;22294;52.044;4.582;2023-03-21T04:08:12;19.85;;;11.30;;
36257;SDS011;22294;52.044;4.582;2023-03-21T04:10:39;23.63;;;11.57;;
36257;SDS011;22294;52.044;4.582;2023-03-21T04:13:06;22.70;;;11.32;;
36257;SDS011;22294;52.044;4.582;2023-03-21T04:15:32;21.33;;;12.50;;
36257;SDS011;22294;52.044;4.582;2023-03-21T04:17:57;20.75;;;11.35;;
36257;SDS011;22294;52.044;4.582;2023-03-21T04:20:22;21.98;;;11.90;;
36257;SDS011;22294;52.044;4.582;2023-03-21T04:22:48;22.75;;;11.55;;
36257;SDS011;22294;52.044;4.582;2023-03-21T04:25:13;21.17;;;11.63;;
36257;SDS011;22294;52.044;4.582;2023-03-21T04:27:39;23.88;;;10.90;;
36257;SDS011;22294;52.044;4.582;2023-03-21T04:30:04;19.27;;;11.52;;
36257;SDS011;22294;52.044;4.582;2023-03-21T04:32:31;25.38;;;12.18;;
36257;SDS011;22294;52.044;4.582;2023-03-21T04:34:58;20.95;;;10.25;;
36257;SDS011;22294;52.044;4.582;2023-03-21T04:37:24;21.73;;;11.80;;
36257;SDS011;22294;52.044;4.582;2023-03-21T04:39:50;25.00;;;11.27;;
36257;SDS011;22294;52.044;4.582;2023-03-21T04:42:16;18.17;;;10.85;;
36257;SDS011;22294;52.044;4.582;2023-03-21T04:44:43;22.08;;;11.32;;
36257;SDS011;22294;52.044;4.582;2023-03-21T04:47:09;29.70;;;12.60;;
36257;SDS011;22294;52.044;4.582;2023-03-21T04:49:35;25.25;;;12.40;;
36257;SDS011;22294;52.044;4.582;2023-03-21T04:52:00;23.55;;;12.40;;
36257;SDS011;22294;52.044;4.582;2023-03-21T04:54:26;22.17;;;12.05;;
36257;SDS011;22294;52.044;4.582;2023-03-21T04:56:51;23.50;;;12.57;;
36257;SDS011;22294;52.044;4.582;2023-03-21T04:59:16;26.00;;;12.52;;
36257;SDS011;22294;52.044;4.582;2023-03-21T05:01:43;23.35;;;12.27;;
36257;SDS011;22294;52.044;4.582;2023-03-21T05:04:10;27.92;;;14.02;;
36257;SDS011;22294;52.044;4.582;2023-03-21T05:06:38;23.65;;;14.07;;
36257;SDS011;22294;52.044;4.582;2023-03-21T05:09:06;24.85;;;14.05;;
36257;SDS011;22294;52.044;4.582;2023-03-21T05:11:33;28.38;;;14.60;;
36257;SDS011;22294;52.044;4.582;2023-03-21T05:14:01;25.52;;;13.32;;
36257;SDS011;22294;52.044;4.582;2023-03-21T05:16:28;27.02;;;15.25;;
36257;SDS011;22294;52.044;4.582;2023-03-21T05:18:55;31.13;;;14.90;;
36257;SDS011;22294;52.044;4.582;2023-03-21T05:21:23;27.38;;;15.02;;
36257;SDS011;22294;52.044;4.582;2023-03-21T05:23:49;28.50;;;16.13;;
36257;SDS011;22294;52.044;4.582;2023-03-21T05:26:21;31.05;;;16.30;;
36257;SDS011;22294;52.044;4.582;2023-03-21T05:28:47;30.05;;;17.33;;
36257;SDS011;22294;52.044;4.582;2023-03-21T05:31:13;27.65;;;15.77;;
36257;SDS011;22294;52.044;4.582;2023-03-21T05:33:40;23.40;;;14.63;;
36257;SDS011;22294;52.044;4.582;2023-03-21T05:36:06;32.20;;;16.60;;
36257;SDS011;22294;52.044;4.582;2023-03-21T05:38:32;31.80;;;16.98;;
36257;SDS011;22294;52.044;4.582;2023-03-21T05:40:58;29.38;;;15.50;;
36257;SDS011;22294;52.044;4.582;2023-03-21T05:43:23;27.63;;;15.13;;
36257;SDS011;22294;52.044;4.582;2023-03-21T05:45:48;28.73;;;15.65;;
36257;SDS011;22294;52.044;4.582;2023-03-21T05:48:14;30.83;;;15.05;;
36257;SDS011;22294;52.044;4.582;2023-03-21T05:50:39;25.13;;;14.57;;
36257;SDS011;22294;52.044;4.582;2023-03-21T05:53:05;30.30;;;15.65;;
36257;SDS011;22294;52.044;4.582;2023-03-21T05:55:31;27.98;;;16.00;;
36257;SDS011;22294;52.044;4.582;2023-03-21T05:57:56;29.40;;;15.40;;
36257;SDS011;22294;52.044;4.582;2023-03-21T06:00:21;31.52;;;14.93;;
36257;SDS011;22294;52.044;4.582;2023-03-21T06:02:47;33.10;;;15.77;;
36257;SDS011;22294;52.044;4.582;2023-03-21T06:05:12;26.00;;;15.00;;
36257;SDS011;22294;52.044;4.582;2023-03-21T06:07:38;26.40;;;14.70;;
36257;SDS011;22294;52.044;4.582;2023-03-21T06:10:04;26.90;;;14.38;;
36257;SDS011;22294;52.044;4.582;2023-03-21T06:12:30;26.85;;;13.65;;
36257;SDS011;22294;52.044;4.582;2023-03-21T06:14:56;21.67;;;13.55;;
36257;SDS011;22294;52.044;4.582;2023-03-21T06:17:21;24.38;;;13.57;;
36257;SDS011;22294;52.044;4.582;2023-03-21T06:19:48;22.90;;;13.85;;
36257;SDS011;22294;52.044;4.582;2023-03-21T06:22:13;22.73;;;13.07;;
36257;SDS011;22294;52.044;4.582;2023-03-21T06:24:39;19.25;;;12.00;;
36257;SDS011;22294;52.044;4.582;2023-03-21T06:27:04;19.52;;;12.25;;
36257;SDS011;22294;52.044;4.582;2023-03-21T06:29:30;22.77;;;12.20;;
36257;SDS011;22294;52.044;4.582;2023-03-21T06:31:55;27.00;;;12.75;;
36257;SDS011;22294;52.044;4.582;2023-03-21T06:34:21;24.00;;;13.20;;
36257;SDS011;22294;52.044;4.582;2023-03-21T06:36:47;27.30;;;12.80;;
36257;SDS011;22294;52.044;4.582;2023-03-21T06:39:12;28.23;;;13.93;;
36257;SDS011;22294;52.044;4.582;2023-03-21T06:41:38;25.15;;;12.88;;
36257;SDS011;22294;52.044;4.582;2023-03-21T06:44:03;23.98;;;12.82;;
36257;SDS011;22294;52.044;4.582;2023-03-21T06:46:29;29.98;;;12.63;;
36257;SDS011;22294;52.044;4.582;2023-03-21T06:48:54;23.55;;;11.93;;
36257;SDS011;22294;52.044;4.582;2023-03-21T06:51:20;29.17;;;12.02;;
36257;SDS011;22294;52.044;4.582;2023-03-21T06:53:45;27.90;;;11.85;;
36257;SDS011;22294;52.044;4.582;2023-03-21T06:56:11;26.77;;;12.70;;
36257;SDS011;22294;52.044;4.582;2023-03-21T06:58:37;20.98;;;11.52;;
36257;SDS011;22294;52.044;4.582;2023-03-21T07:01:03;26.60;;;12.40;;
36257;SDS011;22294;52.044;4.582;2023-03-21T07:03:29;20.25;;;12.05;;
36257;SDS011;22294;52.044;4.582;2023-03-21T07:05:55;25.08;;;11.63;;
36257;SDS011;22294;52.044;4.582;2023-03-21T07:08:21;24.63;;;11.45;;
36257;SDS011;22294;52.044;4.582;2023-03-21T07:10:47;24.70;;;12.88;;
36257;SDS011;22294;52.044;4.582;2023-03-21T07:13:13;26.17;;;11.50;;
36257;SDS011;22294;52.044;4.582;2023-03-21T07:15:38;24.42;;;11.30;;
36257;SDS011;22294;52.044;4.582;2023-03-21T07:18:05;21.10;;;11.57;;
36257;SDS011;22294;52.044;4.582;2023-03-21T07:20:32;25.23;;;11.68;;
36257;SDS011;22294;52.044;4.582;2023-03-21T07:22:58;21.42;;;10.60;;
36257;SDS011;22294;52.044;4.582;2023-03-21T07:25:24;20.15;;;11.23;;
36257;SDS011;22294;52.044;4.582;2023-03-21T07:27:50;22.88;;;10.38;;
36257;SDS011;22294;52.044;4.582;2023-03-21T07:30:16;20.48;;;11.07;;
36257;SDS011;22294;52.044;4.582;2023-03-21T07:32:41;24.40;;;11.43;;
36257;SDS011;22294;52.044;4.582;2023-03-21T07:35:09;21.38;;;10.98;;
36257;SDS011;22294;52.044;4.582;2023-03-21T07:37:36;26.00;;;11.18;;
36257;SDS011;22294;52.044;4.582;2023-03-21T07:40:02;20.70;;;10.77;;
36257;SDS011;22294;52.044;4.582;2023-03-21T07:42:33;19.90;;;10.23;;
36257;SDS011;22294;52.044;4.582;2023-03-21T07:44:58;20.52;;;10.80;;
36257;SDS011;22294;52.044;4.582;2023-03-21T07:47:24;21.05;;;10.25;;
36257;SDS011;22294;52.044;4.582;2023-03-21T07:49:49;22.88;;;10.18;;
36257;SDS011;22294;52.044;4.582;2023-03-21T07:52:15;16.90;;;10.13;;
36257;SDS011;22294;52.044;4.582;2023-03-21T07:54:40;18.42;;;9.98;;
36257;SDS011;22294;52.044;4.582;2023-03-21T07:57:06;23.98;;;11.30;;
36257;SDS011;22294;52.044;4.582;2023-03-21T07:59:31;18.35;;;9.32;;
36257;SDS011;22294;52.044;4.582;2023-03-21T08:01:56;20.77;;;10.50;;
36257;SDS011;22294;52.044;4.582;2023-03-21T08:04:21;21.98;;;10.43;;
36257;SDS011;22294;52.044;4.582;2023-03-21T08:06:47;18.45;;;10.90;;
36257;SDS011;22294;52.044;4.582;2023-03-21T08:09:15;22.20;;;11.30;;
36257;SDS011;22294;52.044;4.582;2023-03-21T08:11:40;23.00;;;10.93;;
36257;SDS011;22294;52.044;4.582;2023-03-21T08:14:05;25.15;;;10.98;;
36257;SDS011;22294;52.044;4.582;2023-03-21T08:16:31;23.77;;;10.48;;
36257;SDS011;22294;52.044;4.582;2023-03-21T08:18:56;16.58;;;10.05;;
36257;SDS011;22294;52.044;4.582;2023-03-21T08:21:21;24.95;;;11.10;;
36257;SDS011;22294;52.044;4.582;2023-03-21T08:23:46;19.25;;;10.13;;
36257;SDS011;22294;52.044;4.582;2023-03-21T08:26:12;20.33;;;10.40;;
36257;SDS011;22294;52.044;4.582;2023-03-21T08:28:39;24.65;;;10.27;;
36257;SDS011;22294;52.044;4.582;2023-03-21T08:31:06;18.95;;;9.30;;
36257;SDS011;22294;52.044;4.582;2023-03-21T08:33:33;21.08;;;9.63;;
36257;SDS011;22294;52.044;4.582;2023-03-21T08:35:59;19.95;;;8.82;;
36257;SDS011;22294;52.044;4.582;2023-03-21T08:38:25;16.65;;;8.68;;
36257;SDS011;22294;52.044;4.582;2023-03-21T08:40:53;17.38;;;8.90;;
36257;SDS011;22294;52.044;4.582;2023-03-21T08:43:19;17.75;;;7.40;;
36257;SDS011;22294;52.044;4.582;2023-03-21T08:45:44;14.18;;;6.82;;
36257;SDS011;22294;52.044;4.582;2023-03-21T08:48:10;17.00;;;7.45;;
36257;SDS011;22294;52.044;4.582;2023-03-21T08:50:35;13.35;;;7.88;;
36257;SDS011;22294;52.044;4.582;2023-03-21T08:53:00;14.18;;;6.47;;
36257;SDS011;22294;52.044;4.582;2023-03-21T08:55:26;18.67;;;6.47;;
36257;SDS011;22294;52.044;4.582;2023-03-21T08:57:51;13.88;;;6.82;;
36257;SDS011;22294;52.044;4.582;2023-03-21T09:00:17;11.38;;;6.53;;
36257;SDS011;22294;52.044;4.582;2023-03-21T09:02:45;13.30;;;7.05;;
36257;SDS011;22294;52.044;4.582;2023-03-21T09:05:12;16.55;;;7.63;;
36257;SDS011;22294;52.044;4.582;2023-03-21T09:07:38;16.58;;;6.95;;
36257;SDS011;22294;52.044;4.582;2023-03-21T09:10:05;15.25;;;7.38;;
36257;SDS011;22294;52.044;4.582;2023-03-21T09:12:33;14.20;;;7.45;;
36257;SDS011;22294;52.044;4.582;2023-03-21T09:14:58;16.95;;;7.70;;
36257;SDS011;22294;52.044;4.582;2023-03-21T09:17:26;15.30;;;7.95;;
36257;SDS011;22294;52.044;4.582;2023-03-21T09:19:52;17.33;;;7.63;;
36257;SDS011;22294;52.044;4.582;2023-03-21T09:22:17;17.38;;;7.88;;
36257;SDS011;22294;52.044;4.582;2023-03-21T09:24:45;16.58;;;8.07;;
36257;SDS011;22294;52.044;4.582;2023-03-21T09:27:12;19.85;;;9.30;;
36257;SDS011;22294;52.044;4.582;2023-03-21T09:29:38;17.73;;;9.13;;
36257;SDS011;22294;52.044;4.582;2023-03-21T09:32:07;17.50;;;8.77;;
36257;SDS011;22294;52.044;4.582;2023-03-21T09:34:33;18.42;;;8.70;;
36257;SDS011;22294;52.044;4.582;2023-03-21T09:37:01;20.33;;;8.82;;
36257;SDS011;22294;52.044;4.582;2023-03-21T09:39:27;18.33;;;9.07;;
36257;SDS011;22294;52.044;4.582;2023-03-21T09:47:21;23.15;;;10.57;;
36257;SDS011;22294;52.044;4.582;2023-03-21T09:52:52;20.35;;;9.60;;
36257;SDS011;22294;52.044;4.582;2023-03-21T09:55:23;18.48;;;9.68;;
36257;SDS011;22294;52.044;4.582;2023-03-21T10:00:32;20.95;;;10.32;;
36257;SDS011;22294;52.044;4.582;2023-03-21T10:03:02;22.83;;;10.52;;
36257;SDS011;22294;52.044;4.582;2023-03-21T10:05:31;19.73;;;10.32;;
36257;SDS011;22294;52.044;4.582;2023-03-21T10:08:07;19.10;;;10.02;;
36257;SDS011;22294;52.044;4.582;2023-03-21T10:10:38;20.27;;;9.63;;
36257;SDS011;22294;52.044;4.582;2023-03-21T10:13:14;20.50;;;10.40;;
36257;SDS011;22294;52.044;4.582;2023-03-21T10:15:45;21.55;;;9.63;;
36257;SDS011;22294;52.044;4.582;2023-03-21T10:18:12;20.60;;;10.23;;
36257;SDS011;22294;52.044;4.582;2023-03-21T10:20:43;23.55;;;10.70;;
36257;SDS011;22294;52.044;4.582;2023-03-21T10:23:11;21.02;;;10.50;;
36257;SDS011;22294;52.044;4.582;2023-03-21T10:25:40;22.38;;;9.98;;
36257;SDS011;22294;52.044;4.582;2023-03-21T10:28:10;21.70;;;9.90;;
36257;SDS011;22294;52.044;4.582;2023-03-21T10:30:43;18.83;;;10.02;;
36257;SDS011;22294;52.044;4.582;2023-03-21T10:33:12;17.88;;;8.68;;
36257;SDS011;22294;52.044;4.582;2023-03-21T10:35:40;19.15;;;9.35;;
36257;SDS011;22294;52.044;4.582;2023-03-21T10:38:17;17.73;;;8.38;;
36257;SDS011;22294;52.044;4.582;2023-03-21T10:40:45;22.23;;;9.05;;
36257;SDS011;22294;52.044;4.582;2023-03-21T10:43:15;18.40;;;9.43;;
36257;SDS011;22294;52.044;4.582;2023-03-21T10:45:44;14.63;;;8.23;;
36257;SDS011;22294;52.044;4.582;2023-03-21T10:48:13;16.00;;;8.63;;
36257;SDS011;22294;52.044;4.582;2023-03-21T10:50:39;19.80;;;8.98;;
36257;SDS011;22294;52.044;4.582;2023-03-21T10:53:12;17.23;;;9.05;;
36257;SDS011;22294;52.044;4.582;2023-03-21T10:55:41;17.95;;;9.32;;
36257;SDS011;22294;52.044;4.582;2023-03-21T10:58:08;18.38;;;10.07;;
36257;SDS011;22294;52.044;4.582;2023-03-21T11:00:43;14.43;;;9.07;;
36257;SDS011;22294;52.044;4.582;2023-03-21T11:03:20;18.27;;;9.95;;
36257;SDS011;22294;52.044;4.582;2023-03-21T11:05:51;22.33;;;10.25;;
36257;SDS011;22294;52.044;4.582;2023-03-21T11:08:19;18.50;;;10.10;;
36257;SDS011;22294;52.044;4.582;2023-03-21T11:11:01;20.13;;;10.70;;
36257;SDS011;22294;52.044;4.582;2023-03-21T11:16:23;16.30;;;10.68;;
36257;SDS011;22294;52.044;4.582;2023-03-21T11:19:19;16.80;;;10.57;;
36257;SDS011;22294;52.044;4.582;2023-03-21T11:21:52;18.73;;;10.38;;
36257;SDS011;22294;52.044;4.582;2023-03-21T11:24:21;21.25;;;11.18;;
36257;SDS011;22294;52.044;4.582;2023-03-21T11:26:47;16.17;;;10.07;;
36257;SDS011;22294;52.044;4.582;2023-03-21T11:29:32;20.10;;;10.80;;
36257;SDS011;22294;52.044;4.582;2023-03-21T11:32:00;20.33;;;9.98;;
36257;SDS011;22294;52.044;4.582;2023-03-21T11:34:45;19.50;;;10.20;;
36257;SDS011;22294;52.044;4.582;2023-03-21T11:37:26;16.05;;;11.05;;
36257;SDS011;22294;52.044;4.582;2023-03-21T11:42:44;20.13;;;10.27;;
36257;SDS011;22294;52.044;4.582;2023-03-21T11:45:15;18.55;;;10.20;;
36257;SDS011;22294;52.044;4.582;2023-03-21T11:47:45;19.20;;;10.32;;
36257;SDS011;22294;52.044;4.582;2023-03-21T11:50:15;24.88;;;10.93;;
36257;SDS011;22294;52.044;4.582;2023-03-21T11:52:42;19.48;;;11.00;;
36257;SDS011;22294;52.044;4.582;2023-03-21T11:57:56;14.13;;;7.82;;
36257;SDS011;22294;52.044;4.582;2023-03-21T12:00:31;13.98;;;6.78;;
36257;SDS011;22294;52.044;4.582;2023-03-21T12:06:04;17.17;;;7.45;;
36257;SDS011;22294;52.044;4.582;2023-03-21T12:11:28;13.60;;;8.80;;
36257;SDS011;22294;52.044;4.582;2023-03-21T12:14:11;19.38;;;10.00;;
36257;SDS011;22294;52.044;4.582;2023-03-21T12:19:43;15.75;;;8.90;;
36257;SDS011;22294;52.044;4.582;2023-03-21T12:25:21;16.80;;;10.32;;
36257;SDS011;22294;52.044;4.582;2023-03-21T12:28:14;12.73;;;8.07;;
36257;SDS011;22294;52.044;4.582;2023-03-21T12:44:19;8.82;;;5.57;;
36257;SDS011;22294;52.044;4.582;2023-03-21T12:46:48;11.88;;;6.60;;
36257;SDS011;22294;52.044;4.582;2023-03-21T12:49:34;10.68;;;6.82;;
36257;SDS011;22294;52.044;4.582;2023-03-21T12:52:23;14.95;;;8.35;;
36257;SDS011;22294;52.044;4.582;2023-03-21T12:55:00;18.75;;;8.43;;
36257;SDS011;22294;52.044;4.582;2023-03-21T12:57:38;11.38;;;7.75;;
36257;SDS011;22294;52.044;4.582;2023-03-21T13:00:13;14.93;;;7.95;;
36257;SDS011;22294;52.044;4.582;2023-03-21T13:02:53;14.13;;;8.80;;
36257;SDS011;22294;52.044;4.582;2023-03-21T13:05:28;13.68;;;8.45;;
36257;SDS011;22294;52.044;4.582;2023-03-21T13:08:01;11.45;;;7.93;;
36257;SDS011;22294;52.044;4.582;2023-03-21T13:10:31;14.68;;;7.72;;
36257;SDS011;22294;52.044;4.582;2023-03-21T13:21:36;15.20;;;8.45;;
36257;SDS011;22294;52.044;4.582;2023-03-21T13:26:54;16.35;;;9.50;;
36257;SDS011;22294;52.044;4.582;2023-03-21T13:29:25;12.80;;;9.02;;
36257;SDS011;22294;52.044;4.582;2023-03-21T13:31:57;13.45;;;8.73;;
36257;SDS011;22294;52.044;4.582;2023-03-21T13:34:30;13.45;;;9.35;;
36257;SDS011;22294;52.044;4.582;2023-03-21T13:36:55;17.02;;;9.90;;
36257;SDS011;22294;52.044;4.582;2023-03-21T13:39:25;15.45;;;8.75;;
36257;SDS011;22294;52.044;4.582;2023-03-21T13:41:52;15.32;;;8.65;;
36257;SDS011;22294;52.044;4.582;2023-03-21T13:44:31;15.52;;;8.32;;
36257;SDS011;22294;52.044;4.582;2023-03-21T13:52:41;14.38;;;8.13;;
36257;SDS011;22294;52.044;4.582;2023-03-21T13:55:13;13.82;;;9.30;;
36257;SDS011;22294;52.044;4.582;2023-03-21T13:57:45;17.55;;;9.32;;
36257;SDS011;22294;52.044;4.582;2023-03-21T14:05:25;13.05;;;8.63;;
36257;SDS011;22294;52.044;4.582;2023-03-21T14:07:56;19.30;;;9.10;;
36257;SDS011;22294;52.044;4.582;2023-03-21T14:12:57;16.98;;;8.90;;
36257;SDS011;22294;52.044;4.582;2023-03-21T14:15:23;17.90;;;9.23;;
36257;SDS011;22294;52.044;4.582;2023-03-21T14:17:58;12.85;;;8.88;;
36257;SDS011;22294;52.044;4.582;2023-03-21T14:20:29;13.95;;;8.75;;
36257;SDS011;22294;52.044;4.582;2023-03-21T14:22:56;15.13;;;9.02;;
36257;SDS011;22294;52.044;4.582;2023-03-21T14:25:22;17.50;;;9.32;;
36257;SDS011;22294;52.044;4.582;2023-03-21T14:27:52;16.50;;;9.77;;
36257;SDS011;22294;52.044;4.582;2023-03-21T14:30:23;16.63;;;9.75;;
36257;SDS011;22294;52.044;4.582;2023-03-21T14:32:56;19.48;;;9.40;;
36257;SDS011;22294;52.044;4.582;2023-03-21T14:35:27;17.77;;;10.87;;
36257;SDS011;22294;52.044;4.582;2023-03-21T14:37:55;13.48;;;8.73;;
36257;SDS011;22294;52.044;4.582;2023-03-21T14:40:25;16.65;;;10.00;;
36257;SDS011;22294;52.044;4.582;2023-03-21T14:42:53;16.27;;;9.57;;
36257;SDS011;22294;52.044;4.582;2023-03-21T14:45:23;18.73;;;11.35;;
36257;SDS011;22294;52.044;4.582;2023-03-21T14:53:21;14.77;;;8.07;;
36257;SDS011;22294;52.044;4.582;2023-03-21T14:58:46;12.73;;;8.32;;
36257;SDS011;22294;52.044;4.582;2023-03-21T15:01:15;15.70;;;8.73;;
36257;SDS011;22294;52.044;4.582;2023-03-21T15:03:51;10.70;;;7.72;;
36257;SDS011;22294;52.044;4.582;2023-03-21T15:06:17;11.70;;;8.05;;
36257;SDS011;22294;52.044;4.582;2023-03-21T15:08:53;10.80;;;7.78;;
36257;SDS011;22294;52.044;4.582;2023-03-21T15:11:21;11.48;;;6.25;;
36257;SDS011;22294;52.044;4.582;2023-03-21T15:16:27;8.15;;;6.95;;
36257;SDS011;22294;52.044;4.582;2023-03-21T15:18:53;10.52;;;6.80;;
36257;SDS011;22294;52.044;4.582;2023-03-21T15:21:20;8.80;;;6.03;;
36257;SDS011;22294;52.044;4.582;2023-03-21T15:23:55;7.85;;;5.75;;
36257;SDS011;22294;52.044;4.582;2023-03-21T15:26:26;8.35;;;5.45;;
36257;SDS011;22294;52.044;4.582;2023-03-21T15:28:56;6.47;;;4.97;;
36257;SDS011;22294;52.044;4.582;2023-03-21T15:31:23;7.35;;;6.35;;
36257;SDS011;22294;52.044;4.582;2023-03-21T15:33:53;10.73;;;5.75;;
36257;SDS011;22294;52.044;4.582;2023-03-21T15:36:26;10.48;;;5.68;;
36257;SDS011;22294;52.044;4.582;2023-03-21T15:38:56;11.00;;;6.07;;
36257;SDS011;22294;52.044;4.582;2023-03-21T15:41:27;11.43;;;6.67;;
36257;SDS011;22294;52.044;4.582;2023-03-21T15:44:04;11.20;;;6.87;;
36257;SDS011;22294;52.044;4.582;2023-03-21T15:46:31;9.10;;;5.80;;
36257;SDS011;22294;52.044;4.582;2023-03-21T15:49:26;10.65;;;5.53;;
36257;SDS011;22294;52.044;4.582;2023-03-21T15:52:04;8.60;;;6.22;;
36257;SDS011;22294;52.044;4.582;2023-03-21T15:54:41;7.88;;;4.95;;
36257;SDS011;22294;52.044;4.582;2023-03-21T15:57:19;7.40;;;4.95;;
36257;SDS011;22294;52.044;4.582;2023-03-21T15:59:58;6.22;;;4.78;;
36257;SDS011;22294;52.044;4.582;2023-03-21T16:02:31;6.57;;;5.50;;
36257;SDS011;22294;52.044;4.582;2023-03-21T16:04:59;7.13;;;4.93;;
36257;SDS011;22294;52.044;4.582;2023-03-21T16:07:44;8.65;;;5.47;;
36257;SDS011;22294;52.044;4.582;2023-03-21T16:10:16;6.38;;;4.40;;
36257;SDS011;22294;52.044;4.582;2023-03-21T16:12:52;8.23;;;5.22;;
36257;SDS011;22294;52.044;4.582;2023-03-21T16:15:17;8.07;;;4.82;;
36257;SDS011;22294;52.044;4.582;2023-03-21T16:17:47;11.93;;;4.72;;
36257;SDS011;22294;52.044;4.582;2023-03-21T16:20:16;8.55;;;4.25;;
36257;SDS011;22294;52.044;4.582;2023-03-21T16:22:44;9.70;;;4.45;;
36257;SDS011;22294;52.044;4.582;2023-03-21T16:25:10;6.75;;;4.13;;
36257;SDS011;22294;52.044;4.582;2023-03-21T16:27:35;8.40;;;4.97;;
36257;SDS011;22294;52.044;4.582;2023-03-21T16:30:01;7.68;;;3.95;;
36257;SDS011;22294;52.044;4.582;2023-03-21T16:32:26;11.15;;;4.88;;
36257;SDS011;22294;52.044;4.582;2023-03-21T16:34:52;6.38;;;4.15;;
36257;SDS011;22294;52.044;4.582;2023-03-21T16:37:18;9.70;;;7.13;;
36257;SDS011;22294;52.044;4.582;2023-03-21T16:39:43;7.63;;;5.20;;